createdAt,value
2018-11-20T00:01:42.629Z,99.60
2018-11-20T00:04:30.856Z,99.50
2018-11-20T00:07:36.800Z,99.40
2018-11-20T00:10:23.893Z,99.40
2018-11-20T00:13:02.684Z,99.60
2018-11-20T00:15:59.712Z,99.80
2018-11-20T00:18:47.956Z,99.90
2018-11-20T00:21:42.027Z,99.90
2018-11-20T00:24:29.044Z,99.90
2018-11-20T00:27:23.055Z,99.70
2018-11-20T00:30:10.024Z,99.50
2018-11-20T00:32:47.963Z,99.50
2018-11-20T00:35:34.834Z,99.60
2018-11-20T00:38:41.155Z,99.60
2018-11-20T00:41:20.481Z,99.50
2018-11-20T00:44:03.017Z,99.40
2018-11-20T00:46:59.835Z,99.30
2018-11-20T00:49:50.585Z,99.40
2018-11-20T00:52:57.056Z,99.40
2018-11-20T00:56:27.135Z,99.40
2018-11-20T00:59:04.331Z,99.50
2018-11-20T01:01:48.156Z,99.60
2018-11-20T01:04:35.060Z,99.80
2018-11-20T01:07:26.129Z,99.90
2018-11-20T01:10:16.993Z,99.90
2018-11-20T01:13:05.235Z,99.90
2018-11-20T01:15:59.354Z,99.90
2018-11-20T01:18:48.495Z,99.90
2018-11-20T01:21:38.771Z,99.90
2018-11-20T01:24:25.427Z,99.80
2018-11-20T01:27:19.478Z,99.80
2018-11-20T01:30:07.726Z,99.60
2018-11-20T01:32:48.185Z,99.50
2018-11-20T01:35:34.993Z,99.20
2018-11-20T01:38:15.691Z,99.30
2018-11-20T01:41:02.454Z,99.30
2018-11-20T01:44:05.559Z,99.30
2018-11-20T01:47:08.767Z,99.40
2018-11-20T01:50:11.821Z,99.30
2018-11-20T01:53:08.071Z,99.20
2018-11-20T01:55:54.844Z,99.20
2018-11-20T01:58:34.219Z,99.10
2018-11-20T02:01:22.849Z,99.00
2018-11-20T02:04:16.813Z,99.00
2018-11-20T02:07:14.711Z,99.20
2018-11-20T02:10:11.724Z,99.40
2018-11-20T02:12:59.938Z,99.50
2018-11-20T02:15:50.919Z,99.60
2018-11-20T02:18:34.138Z,99.70
2018-11-20T02:21:22.492Z,99.60
2018-11-20T02:24:19.495Z,99.50
2018-11-20T02:27:11.176Z,99.60
2018-11-20T02:30:08.087Z,99.60
2018-11-20T02:33:02.093Z,99.80
2018-11-20T02:35:53.022Z,99.90
2018-11-20T02:38:42.459Z,99.90
2018-11-20T02:41:29.130Z,99.90
2018-11-20T02:44:17.347Z,99.90
2018-11-20T02:47:11.711Z,99.90
2018-11-20T02:50:02.755Z,99.90
2018-11-20T02:53:06.101Z,99.90
2018-11-20T02:55:43.318Z,99.90
2018-11-20T02:58:29.991Z,99.90
2018-11-20T03:01:08.120Z,99.90
2018-11-20T03:03:55.177Z,99.90
2018-11-20T03:06:43.339Z,99.90
2018-11-20T03:09:37.354Z,99.90
2018-11-20T03:12:19.999Z,99.90
2018-11-20T03:15:08.431Z,99.90
2018-11-20T03:17:52.771Z,99.90
2018-11-20T03:20:46.554Z,99.90
2018-11-20T03:23:43.585Z,99.90
2018-11-20T03:26:30.846Z,99.90
2018-11-20T03:29:56.975Z,99.90
2018-11-20T03:32:57.129Z,99.90
2018-11-20T03:35:45.443Z,99.90
2018-11-20T03:38:40.006Z,99.90
2018-11-20T03:41:18.960Z,99.90
2018-11-20T03:44:01.267Z,99.90
2018-11-20T03:46:52.148Z,99.90
2018-11-20T03:49:43.141Z,99.90
2018-11-20T03:52:46.551Z,99.90
2018-11-20T03:55:34.798Z,99.90
2018-11-20T03:58:14.175Z,99.90
2018-11-20T04:01:05.203Z,99.90
2018-11-20T04:03:56.285Z,99.90
2018-11-20T04:06:43.302Z,99.90
2018-11-20T04:09:35.221Z,99.90
2018-11-20T04:12:21.797Z,99.90
2018-11-20T04:15:28.116Z,99.90
2018-11-20T04:18:21.971Z,99.90
2018-11-20T04:21:06.560Z,99.90
2018-11-20T04:23:53.214Z,99.90
2018-11-20T04:26:32.778Z,99.90
2018-11-20T04:29:19.471Z,99.90
2018-11-20T04:32:16.419Z,99.90
2018-11-20T04:35:05.966Z,99.90
2018-11-20T04:37:45.430Z,99.90
2018-11-20T04:40:30.845Z,99.90
2018-11-20T04:43:17.793Z,99.90
2018-11-20T04:46:09.053Z,99.90
2018-11-20T04:49:15.448Z,99.90
2018-11-20T04:51:53.444Z,99.90
2018-11-20T04:54:40.122Z,99.90
2018-11-20T04:57:37.428Z,99.90
2018-11-20T05:00:22.272Z,99.90
2018-11-20T05:03:19.468Z,99.90
2018-11-20T05:06:19.663Z,99.90
2018-11-20T05:09:06.276Z,99.90
2018-11-20T05:11:42.514Z,99.90
2018-11-20T05:14:42.460Z,99.90
2018-11-20T05:17:23.933Z,99.90
2018-11-20T05:20:11.051Z,99.90
2018-11-20T05:22:59.274Z,99.90
2018-11-20T05:25:45.974Z,99.90
2018-11-20T05:28:33.025Z,99.90
2018-11-20T05:31:39.607Z,99.90
2018-11-20T05:34:27.847Z,99.90
2018-11-20T05:37:08.478Z,99.90
2018-11-20T05:39:49.893Z,99.90
2018-11-20T05:42:32.587Z,99.90
2018-11-20T05:45:19.497Z,99.90
2018-11-20T05:48:06.343Z,99.90
2018-11-20T05:50:53.208Z,99.90
2018-11-20T05:53:50.420Z,99.90
2018-11-20T05:56:37.113Z,99.90
2018-11-20T05:59:23.925Z,99.90
2018-11-20T06:02:14.826Z,99.90
2018-11-20T06:05:05.866Z,99.90
2018-11-20T06:07:51.688Z,99.90
2018-11-20T06:10:43.246Z,99.90
2018-11-20T06:13:30.400Z,99.90
2018-11-20T06:16:17.036Z,99.90
2018-11-20T06:19:14.316Z,99.90
2018-11-20T06:22:01.138Z,99.90
2018-11-20T06:24:52.221Z,99.90
2018-11-20T06:27:46.287Z,99.60
2018-11-20T06:30:34.789Z,99.60
2018-11-20T06:33:22.990Z,99.50
2018-11-20T06:36:15.247Z,99.30
2018-11-20T06:39:12.502Z,99.20
2018-11-20T06:42:06.605Z,99.30
2018-11-20T06:44:50.748Z,99.30
2018-11-20T06:47:39.779Z,99.40
2018-11-20T06:50:32.155Z,99.20
2018-11-20T06:53:18.719Z,99.10
2018-11-20T06:56:09.364Z,98.80
2018-11-20T06:59:09.519Z,98.60
2018-11-20T07:01:57.809Z,98.40
2018-11-20T07:04:44.372Z,98.50
2018-11-20T07:07:31.510Z,98.40
2018-11-20T07:10:18.299Z,97.90
2018-11-20T07:13:09.128Z,97.40
2018-11-20T07:16:15.432Z,97.10
2018-11-20T07:19:06.538Z,96.90
2018-11-20T07:21:53.224Z,97.00
2018-11-20T07:24:51.806Z,96.80
2018-11-20T07:27:33.834Z,96.60
2018-11-20T07:30:18.168Z,96.40
2018-11-20T07:33:00.903Z,95.80
2018-11-20T07:35:38.784Z,95.80
2018-11-20T07:38:23.704Z,95.40
2018-11-20T07:41:01.269Z,95.40
2018-11-20T07:43:56.621Z,95.10
2018-11-20T07:46:43.555Z,95.00
2018-11-20T07:49:25.487Z,95.20
2018-11-20T07:52:28.494Z,95.10
2018-11-20T07:55:22.827Z,95.20
2018-11-20T07:58:13.905Z,95.40
2018-11-20T08:00:53.722Z,95.30
2018-11-20T08:03:29.685Z,95.50
2018-11-20T08:06:33.005Z,95.70
2018-11-20T08:09:13.044Z,95.80
2018-11-20T08:12:10.179Z,96.00
2018-11-20T08:15:04.319Z,95.60
2018-11-20T08:17:40.929Z,95.50
2018-11-20T08:20:41.101Z,95.40
2018-11-20T08:23:35.059Z,95.30
2018-11-20T08:26:30.044Z,95.20
2018-11-20T08:29:18.024Z,95.00
2018-11-20T08:32:06.227Z,94.90
2018-11-20T08:34:47.403Z,94.80
2018-11-20T08:37:35.548Z,94.70
2018-11-20T08:40:23.953Z,94.20
2018-11-20T08:43:10.626Z,93.90
2018-11-20T08:46:04.725Z,93.20
2018-11-20T08:48:54.357Z,93.40
2018-11-20T08:51:32.579Z,93.60
2018-11-20T08:54:29.728Z,93.60
2018-11-20T08:57:16.485Z,93.70
2018-11-20T09:00:03.141Z,93.60
2018-11-20T09:02:42.965Z,93.50
2018-11-20T09:05:43.293Z,93.40
2018-11-20T09:08:30.558Z,93.30
2018-11-20T09:11:08.857Z,92.80
2018-11-20T09:14:03.094Z,92.40
2018-11-20T09:16:51.336Z,92.10
2018-11-20T09:19:44.832Z,92.10
2018-11-20T09:22:35.914Z,91.80
2018-11-20T09:25:28.135Z,91.80
2018-11-20T09:28:16.166Z,92.10
2018-11-20T09:31:07.394Z,92.50
2018-11-20T09:33:55.625Z,92.40
2018-11-20T09:36:35.365Z,92.00
2018-11-20T09:39:30.644Z,92.20
2018-11-20T09:42:17.501Z,92.50
2018-11-20T09:45:26.537Z,92.10
2018-11-20T09:48:32.715Z,92.10
2018-11-20T09:51:36.216Z,91.90
2018-11-20T09:54:19.582Z,91.80
2018-11-20T09:57:08.855Z,91.10
2018-11-20T10:00:06.172Z,90.90
2018-11-20T10:02:45.159Z,89.80
2018-11-20T10:05:32.077Z,86.40
2018-11-20T10:08:21.359Z,84.70
2018-11-20T10:11:08.263Z,76.60
2018-11-20T10:13:56.667Z,61.50
2018-11-20T10:16:34.202Z,53.90
2018-11-20T10:19:20.980Z,49.30
2018-11-20T10:22:20.449Z,44.60
2018-11-20T10:25:14.535Z,38.80
2018-11-20T10:28:01.200Z,36.80
2018-11-20T10:30:42.574Z,34.00
2018-11-20T10:33:29.101Z,31.00
2018-11-20T10:36:16.267Z,29.80
2018-11-20T10:39:19.484Z,29.40
2018-11-20T10:42:10.401Z,28.60
2018-11-20T10:45:40.686Z,28.00
2018-11-20T10:48:28.014Z,27.40
2018-11-20T10:51:14.034Z,27.30
2018-11-20T10:54:07.479Z,26.90
2018-11-20T10:56:56.503Z,26.60
2018-11-20T10:59:53.010Z,25.90
2018-11-20T11:02:38.856Z,25.20
2018-11-20T11:05:26.483Z,25.10
2018-11-20T11:08:12.328Z,25.60
2018-11-20T11:10:49.420Z,24.50
2018-11-20T11:13:35.480Z,24.70
2018-11-20T11:16:22.875Z,24.30
2018-11-20T11:19:09.541Z,24.10
2018-11-20T11:22:12.203Z,23.70
2018-11-20T11:24:51.592Z,23.90
2018-11-20T11:27:41.724Z,23.60
2018-11-20T11:30:27.137Z,22.60
2018-11-20T11:33:29.687Z,22.40
2018-11-20T11:36:11.713Z,22.80
2018-11-20T11:39:17.237Z,22.40
2018-11-20T11:42:12.962Z,22.00
2018-11-20T11:45:08.983Z,21.30
2018-11-20T11:47:54.949Z,21.90
2018-11-20T11:50:54.263Z,21.40
2018-11-20T11:53:37.069Z,21.10
2018-11-20T11:56:23.413Z,20.50
2018-11-20T11:59:22.862Z,20.70
2018-11-20T12:05:08.489Z,20.90
2018-11-20T12:08:04.938Z,20.70
2018-11-20T12:10:51.045Z,20.80
2018-11-20T12:13:38.462Z,20.30
2018-11-20T12:16:28.630Z,21.00
2018-11-20T12:19:19.699Z,20.70
2018-11-20T12:22:19.283Z,21.90
2018-11-20T12:25:26.041Z,23.70
2018-11-20T12:28:12.367Z,24.90
2018-11-20T12:31:02.767Z,25.10
2018-11-20T12:34:02.442Z,24.80
2018-11-20T12:37:07.863Z,24.50
2018-11-20T12:40:04.577Z,24.00
2018-11-20T12:42:41.187Z,22.90
2018-11-20T12:45:34.843Z,22.30
2018-11-20T12:48:22.521Z,21.80
2018-11-20T12:51:08.382Z,21.70
2018-11-20T12:53:50.629Z,21.30
2018-11-20T12:56:33.970Z,21.20
2018-11-20T12:59:13.963Z,21.10
2018-11-20T13:02:03.641Z,21.00
2018-11-20T13:04:59.058Z,20.90
2018-11-20T13:07:52.839Z,21.00
2018-11-20T13:10:40.316Z,20.90
2018-11-20T13:13:26.142Z,21.00
2018-11-20T13:16:22.192Z,20.80
2018-11-20T13:19:03.543Z,21.40
2018-11-20T13:21:49.960Z,21.00
2018-11-20T13:24:43.080Z,20.70
2018-11-20T13:27:29.075Z,21.40
2018-11-20T13:30:25.545Z,22.30
2018-11-20T13:33:13.866Z,23.10
2018-11-20T13:36:08.219Z,24.00
2018-11-20T13:38:54.350Z,25.50
2018-11-20T13:41:54.719Z,27.10
2018-11-20T13:44:44.449Z,29.20
2018-11-20T13:47:28.511Z,31.10
2018-11-20T13:50:14.653Z,33.50
2018-11-20T13:53:17.185Z,35.30
2018-11-20T13:56:10.243Z,37.40
2018-11-20T13:58:52.919Z,38.50
2018-11-20T14:01:40.345Z,39.10
2018-11-20T14:04:26.327Z,40.70
2018-11-20T14:07:13.837Z,41.70
2018-11-20T14:09:52.325Z,42.60
2018-11-20T14:12:30.206Z,43.50
2018-11-20T14:15:20.311Z,44.10
2018-11-20T14:18:07.896Z,45.20
2018-11-20T14:20:54.076Z,46.00
2018-11-20T14:23:46.335Z,46.70
2018-11-20T14:26:23.613Z,47.10
2018-11-20T14:29:11.065Z,47.40
2018-11-20T14:31:57.605Z,48.20
2018-11-20T14:34:50.334Z,48.80
2018-11-20T14:37:52.614Z,49.10
2018-11-20T14:40:35.295Z,49.20
2018-11-20T14:43:25.330Z,51.10
2018-11-20T14:46:06.681Z,51.70
2018-11-20T14:48:52.465Z,52.10
2018-11-20T14:51:49.156Z,52.50
2018-11-20T14:54:27.238Z,53.50
2018-11-20T14:57:13.489Z,53.60
2018-11-20T14:59:54.970Z,54.70
2018-11-20T15:02:51.177Z,56.40
2018-11-20T15:05:38.609Z,57.30
2018-11-20T15:08:29.377Z,57.60
2018-11-20T15:11:25.654Z,58.70
2018-11-20T15:14:31.273Z,59.60
2018-11-20T15:17:30.793Z,59.80
2018-11-20T15:20:12.620Z,61.70
2018-11-20T15:23:00.234Z,63.40
2018-11-20T15:25:46.705Z,65.00
2018-11-20T15:28:22.922Z,66.40
2018-11-20T15:30:59.726Z,67.20
2018-11-20T15:33:35.887Z,68.20
2018-11-20T15:36:23.334Z,69.80
2018-11-20T15:39:10.017Z,71.10
2018-11-20T15:42:06.966Z,73.00
2018-11-20T15:44:52.194Z,74.00
2018-11-20T15:47:36.187Z,75.00
2018-11-20T15:50:22.190Z,76.10
2018-11-20T15:52:58.202Z,78.70
2018-11-20T15:55:44.266Z,80.50
2018-11-20T15:58:37.629Z,81.20
2018-11-20T16:01:24.149Z,82.70
2018-11-20T16:04:17.566Z,83.80
2018-11-20T16:07:23.264Z,85.00
2018-11-20T16:10:13.683Z,85.70
2018-11-20T16:12:56.527Z,86.90
2018-11-20T16:15:52.769Z,88.60
2018-11-20T16:18:39.088Z,89.40
2018-11-20T16:21:46.903Z,90.00
2018-11-20T16:24:41.234Z,90.70
2018-11-20T16:27:31.449Z,91.10
2018-11-20T16:30:20.295Z,91.80
2018-11-20T16:33:06.270Z,92.60
2018-11-20T16:35:45.448Z,92.70
2018-11-20T16:38:27.383Z,93.20
2018-11-20T16:41:20.678Z,93.10
2018-11-20T16:44:10.188Z,93.10
2018-11-20T16:47:03.578Z,93.60
2018-11-20T16:49:53.019Z,94.00
2018-11-20T16:52:39.032Z,94.10
2018-11-20T16:55:25.107Z,94.40
2018-11-20T16:58:15.210Z,94.70
2018-11-20T17:00:59.084Z,94.80
2018-11-20T17:03:52.381Z,95.40
2018-11-20T17:06:42.506Z,95.90
2018-11-20T17:09:47.810Z,96.20
2018-11-20T17:12:50.639Z,96.20
2018-11-20T17:15:44.671Z,96.20
2018-11-20T17:18:31.460Z,96.60
2018-11-20T17:21:23.461Z,96.90
2018-11-20T17:24:23.307Z,97.20
2018-11-20T17:27:33.119Z,97.10
2018-11-20T17:30:19.476Z,97.30
2018-11-20T17:33:06.975Z,97.50
2018-11-20T17:35:57.222Z,97.60
2018-11-20T17:39:02.651Z,97.50
2018-11-20T17:41:47.935Z,97.50
2018-11-20T17:44:38.094Z,97.40
2018-11-20T17:47:24.340Z,97.50
2018-11-20T17:50:11.893Z,97.60
2018-11-20T17:52:50.989Z,97.80
2018-11-20T17:55:44.372Z,97.80
2018-11-20T17:58:32.779Z,97.80
2018-11-20T18:01:20.242Z,97.90
2018-11-20T18:04:10.562Z,98.00
2018-11-20T18:06:53.573Z,98.20
2018-11-20T18:09:47.409Z,98.50
2018-11-20T18:12:37.802Z,98.70
2018-11-20T18:15:25.182Z,98.90
2018-11-20T18:18:11.419Z,99.00
2018-11-20T18:21:00.896Z,99.10
2018-11-20T18:23:46.660Z,99.20
2018-11-20T18:26:32.947Z,99.30
2018-11-20T18:29:20.047Z,99.60
2018-11-20T18:32:10.214Z,99.80
2018-11-20T18:34:56.249Z,99.90
2018-11-20T18:37:51.760Z,99.90
2018-11-20T18:40:39.213Z,99.90
2018-11-20T18:43:41.562Z,99.90
2018-11-20T18:46:28.075Z,99.90
2018-11-20T18:49:14.832Z,99.90
2018-11-20T18:52:04.936Z,99.90
2018-11-20T18:55:07.487Z,99.90
2018-11-20T18:58:00.630Z,99.90
2018-11-20T19:00:51.410Z,99.90
2018-11-20T19:03:38.854Z,99.90
2018-11-20T19:06:38.521Z,99.90
2018-11-20T19:09:40.749Z,99.90
2018-11-20T19:12:42.005Z,99.90
2018-11-20T19:15:28.236Z,99.90
2018-11-20T19:18:22.106Z,99.90
2018-11-20T19:21:04.819Z,99.90
2018-11-20T19:23:50.795Z,99.90
2018-11-20T19:26:29.627Z,99.90
2018-11-20T19:29:20.054Z,99.90
2018-11-20T19:32:03.120Z,99.90
2018-11-20T19:34:49.262Z,99.90
2018-11-20T19:37:35.763Z,99.90
2018-11-20T19:40:35.885Z,99.90
2018-11-20T19:43:23.560Z,99.90
2018-11-20T19:46:09.716Z,99.90
2018-11-20T19:49:00.092Z,99.90
2018-11-20T19:52:00.815Z,99.90
2018-11-20T19:54:43.723Z,99.90
2018-11-20T19:57:30.851Z,99.90
2018-11-20T20:00:33.603Z,99.90
2018-11-20T20:03:24.222Z,99.90
2018-11-20T20:06:11.792Z,99.90
2018-11-20T20:08:57.730Z,99.90
2018-11-20T20:11:41.010Z,99.90
2018-11-20T20:14:22.462Z,99.90
2018-11-20T20:17:35.947Z,99.90
2018-11-20T20:20:24.647Z,99.90
2018-11-20T20:23:11.097Z,99.90
2018-11-20T20:25:58.567Z,99.90
2018-11-20T20:29:04.233Z,99.90
2018-11-20T20:32:03.819Z,99.90
2018-11-20T20:34:51.123Z,99.90
2018-11-20T20:37:50.388Z,99.90
2018-11-20T20:40:36.841Z,99.90
2018-11-20T20:43:23.067Z,99.90
2018-11-20T20:46:10.524Z,99.90
2018-11-20T20:48:57.959Z,99.90
2018-11-20T20:51:49.083Z,99.90
2018-11-20T20:54:45.868Z,99.90
2018-11-20T20:57:26.684Z,99.90
2018-11-20T21:00:06.171Z,99.90
2018-11-20T21:02:40.333Z,99.90
2018-11-20T21:05:43.871Z,99.90
2018-11-20T21:08:29.991Z,99.90
2018-11-20T21:11:16.243Z,99.90
2018-11-20T21:14:03.756Z,99.90
2018-11-20T21:16:49.746Z,99.90
2018-11-20T21:19:37.250Z,99.90
2018-11-20T21:22:39.966Z,99.90
2018-11-20T21:25:26.034Z,99.90
2018-11-20T21:28:11.016Z,99.90
2018-11-20T21:30:57.310Z,99.90
2018-11-20T21:33:37.064Z,99.90
2018-11-20T21:36:30.848Z,99.90
2018-11-20T21:39:18.304Z,99.90
2018-11-20T21:42:04.706Z,99.90
2018-11-20T21:44:50.767Z,99.90
2018-11-20T21:47:37.095Z,99.90
2018-11-20T21:50:24.725Z,99.90
2018-11-20T21:53:06.972Z,99.90
2018-11-20T21:55:53.061Z,99.90
2018-11-20T21:58:46.660Z,99.90
2018-11-20T22:01:34.133Z,99.90
2018-11-20T22:04:36.847Z,99.90
2018-11-20T22:07:27.255Z,99.90
2018-11-20T22:10:17.634Z,99.90
2018-11-20T22:13:03.450Z,99.90
2018-11-20T22:15:49.477Z,99.90
2018-11-20T22:18:45.756Z,99.90
2018-11-20T22:21:40.802Z,99.90
2018-11-20T22:24:30.788Z,99.90
2018-11-20T22:27:24.428Z,99.90
2018-11-20T22:30:10.553Z,99.90
2018-11-20T22:32:56.747Z,99.90
2018-11-20T22:35:42.933Z,99.90
2018-11-20T22:38:19.917Z,99.90
2018-11-20T22:41:13.250Z,99.90
2018-11-20T22:44:03.386Z,99.90
2018-11-20T22:47:03.116Z,99.90
2018-11-20T22:50:05.936Z,99.90
2018-11-20T22:53:00.367Z,99.90
2018-11-20T22:55:46.302Z,99.90
2018-11-20T22:58:33.948Z,99.90
2018-11-20T23:01:18.553Z,99.90
2018-11-20T23:04:12.744Z,99.90
2018-11-20T23:07:08.842Z,99.90
2018-11-20T23:09:37.188Z,99.90
2018-11-20T23:12:05.608Z,99.90
2018-11-20T23:14:33.914Z,99.90
2018-11-20T23:17:02.235Z,99.90
2018-11-20T23:19:30.480Z,99.90
2018-11-20T23:21:58.787Z,99.90
2018-11-20T23:24:27.180Z,99.90
2018-11-20T23:26:55.430Z,99.90
2018-11-20T23:29:23.744Z,99.90
2018-11-20T23:31:52.017Z,99.90
2018-11-20T23:34:20.468Z,99.90
2018-11-20T23:36:48.854Z,99.90
2018-11-20T23:39:17.124Z,99.90
2018-11-20T23:41:45.467Z,99.90
2018-11-20T23:44:13.839Z,99.90
2018-11-20T23:46:42.178Z,99.90
2018-11-20T23:49:15.225Z,99.90
2018-11-20T23:51:38.777Z,99.90
2018-11-20T23:54:07.153Z,99.90
2018-11-20T23:56:35.477Z,99.90
2018-11-20T23:59:03.826Z,99.90
